createdAt,value
2023-04-19T00:01:09.863Z,3.00
2023-04-19T00:03:36.626Z,3.80
2023-04-19T00:06:03.527Z,3.40
2023-04-19T00:08:30.017Z,3.50
2023-04-19T00:10:56.479Z,3.70
2023-04-19T00:13:22.959Z,3.40
2023-04-19T00:15:49.476Z,3.40
2023-04-19T00:18:15.965Z,3.50
2023-04-19T00:20:42.494Z,3.50
2023-04-19T00:23:08.939Z,3.20
2023-04-19T00:25:35.421Z,3.70
2023-04-19T00:28:01.873Z,3.60
2023-04-19T00:30:28.407Z,3.60
2023-04-19T00:32:54.968Z,3.40
2023-04-19T00:35:21.500Z,3.40
2023-04-19T00:37:48.011Z,3.50
2023-04-19T00:40:14.700Z,3.40
2023-04-19T00:42:41.226Z,3.40
2023-04-19T00:45:08.344Z,3.30
2023-04-19T00:47:35.931Z,3.80
2023-04-19T00:50:04.222Z,3.50
2023-04-19T00:52:32.576Z,3.30
2023-04-19T00:54:59.089Z,3.50
2023-04-19T00:57:25.636Z,3.50
2023-04-19T00:59:52.168Z,3.30
2023-04-19T01:02:18.688Z,3.80
2023-04-19T01:04:45.182Z,3.30
2023-04-19T01:07:11.716Z,3.40
2023-04-19T01:09:43.940Z,3.80
2023-04-19T01:12:10.430Z,3.60
2023-04-19T01:14:36.909Z,3.50
2023-04-19T01:17:03.421Z,3.40
2023-04-19T01:19:29.906Z,3.60
2023-04-19T01:21:56.382Z,3.70
2023-04-19T01:24:22.977Z,3.60
2023-04-19T01:26:49.435Z,3.20
2023-04-19T01:29:15.912Z,3.40
2023-04-19T01:31:42.491Z,3.50
2023-04-19T01:34:09.019Z,3.30
2023-04-19T01:36:35.517Z,3.80
2023-04-19T01:39:01.999Z,3.50
2023-04-19T01:41:28.460Z,3.80
2023-04-19T01:43:54.955Z,3.20
2023-04-19T01:46:21.452Z,3.20
2023-04-19T01:48:47.920Z,3.50
2023-04-19T01:51:14.393Z,3.60
2023-04-19T01:53:40.925Z,3.60
2023-04-19T01:56:07.698Z,3.60
2023-04-19T01:58:34.247Z,3.60
2023-04-19T02:01:00.759Z,3.40
2023-04-19T02:03:27.386Z,3.60
2023-04-19T02:05:54.021Z,3.40
2023-04-19T02:08:20.538Z,3.70
2023-04-19T02:10:47.036Z,3.40
2023-04-19T02:13:13.523Z,3.30
2023-04-19T02:15:39.983Z,3.60
2023-04-19T02:18:06.554Z,3.20
2023-04-19T02:20:33.504Z,3.40
2023-04-19T02:22:59.953Z,3.80
2023-04-19T02:25:26.394Z,3.30
2023-04-19T02:27:52.848Z,3.50
2023-04-19T02:30:19.398Z,3.30
2023-04-19T02:32:48.372Z,3.50
2023-04-19T02:35:14.870Z,3.20
2023-04-19T02:37:42.014Z,4.00
2023-04-19T02:40:08.970Z,4.00
2023-04-19T02:42:35.500Z,3.40
2023-04-19T02:45:01.996Z,3.80
2023-04-19T02:47:28.558Z,3.30
2023-04-19T02:49:55.022Z,3.20
2023-04-19T02:52:21.474Z,3.40
2023-04-19T02:54:48.298Z,3.10
2023-04-19T02:57:14.784Z,2.90
2023-04-19T02:59:41.226Z,3.20
2023-04-19T03:02:07.758Z,3.70
2023-04-19T03:04:34.456Z,3.30
2023-04-19T03:07:01.024Z,3.20
2023-04-19T03:09:27.564Z,3.20
2023-04-19T03:11:54.004Z,3.00
2023-04-19T03:14:20.509Z,3.70
2023-04-19T03:16:46.994Z,3.20
2023-04-19T03:19:13.458Z,2.90
2023-04-19T03:21:39.947Z,3.00
2023-04-19T03:24:06.615Z,3.60
2023-04-19T03:26:33.088Z,3.30
2023-04-19T03:28:59.556Z,3.40
2023-04-19T03:31:26.087Z,3.50
2023-04-19T03:33:52.612Z,3.50
2023-04-19T03:36:19.147Z,3.10
2023-04-19T03:38:45.628Z,3.30
2023-04-19T03:41:22.918Z,3.60
2023-04-19T03:43:49.576Z,3.40
2023-04-19T03:46:16.070Z,3.70
2023-04-19T03:48:42.577Z,3.50
2023-04-19T03:51:09.177Z,3.70
2023-04-19T03:53:36.722Z,3.30
2023-04-19T03:56:03.389Z,4.00
2023-04-19T03:58:29.870Z,3.70
2023-04-19T04:00:56.359Z,3.70
2023-04-19T04:03:23.090Z,3.70
2023-04-19T04:05:49.771Z,4.10
2023-04-19T04:08:16.436Z,3.90
2023-04-19T04:10:42.915Z,3.90
2023-04-19T04:13:09.479Z,3.90
2023-04-19T04:15:35.997Z,4.20
2023-04-19T04:18:02.598Z,4.10
2023-04-19T04:20:29.164Z,4.60
2023-04-19T04:22:55.616Z,4.70
2023-04-19T04:25:23.223Z,4.60
2023-04-19T04:27:52.915Z,4.10
2023-04-19T04:30:19.515Z,4.40
2023-04-19T04:32:46.259Z,4.90
2023-04-19T04:35:13.227Z,4.90
2023-04-19T04:37:39.677Z,5.50
2023-04-19T04:40:06.848Z,4.70
2023-04-19T04:42:33.355Z,4.80
2023-04-19T04:45:00.184Z,4.70
2023-04-19T04:47:31.191Z,5.00
2023-04-19T04:49:57.799Z,4.50
2023-04-19T04:52:24.286Z,4.90
2023-04-19T04:54:50.768Z,4.50
2023-04-19T04:57:17.266Z,4.60
2023-04-19T04:59:43.757Z,4.90
2023-04-19T05:02:10.219Z,4.70
2023-04-19T05:04:36.736Z,4.60
2023-04-19T05:07:03.244Z,4.80
2023-04-19T05:09:29.763Z,4.50
2023-04-19T05:11:56.318Z,4.70
2023-04-19T05:14:22.834Z,5.80
2023-04-19T05:16:49.383Z,5.00
2023-04-19T05:19:15.961Z,5.70
2023-04-19T05:21:42.435Z,4.90
2023-04-19T05:24:08.977Z,6.10
2023-04-19T05:26:35.648Z,5.90
2023-04-19T05:29:02.167Z,6.40
2023-04-19T05:31:28.666Z,6.00
2023-04-19T05:33:55.213Z,5.40
2023-04-19T05:36:21.760Z,5.40
2023-04-19T05:38:48.227Z,5.50
2023-04-19T05:41:15.800Z,4.70
2023-04-19T05:43:42.267Z,4.70
2023-04-19T05:46:08.775Z,4.90
2023-04-19T05:48:35.255Z,4.60
2023-04-19T05:51:01.751Z,5.20
2023-04-19T05:53:28.205Z,4.70
2023-04-19T05:55:54.714Z,4.90
2023-04-19T05:58:21.216Z,4.80
2023-04-19T06:00:47.792Z,5.00
2023-04-19T06:03:14.490Z,4.50
2023-04-19T06:05:41.349Z,4.30
2023-04-19T06:08:07.942Z,4.50
2023-04-19T06:10:51.384Z,5.10
2023-04-19T06:13:20.901Z,4.80
2023-04-19T06:15:48.122Z,4.90
2023-04-19T06:18:19.006Z,5.10
2023-04-19T06:20:46.454Z,5.20
2023-04-19T06:23:12.929Z,5.00
2023-04-19T06:25:39.387Z,5.10
2023-04-19T06:28:05.919Z,5.00
2023-04-19T06:30:32.412Z,5.10
2023-04-19T06:32:58.921Z,4.30
2023-04-19T06:35:25.581Z,5.50
2023-04-19T06:37:52.174Z,5.00
2023-04-19T06:40:18.955Z,5.10
2023-04-19T06:42:45.421Z,4.90
2023-04-19T06:45:11.989Z,4.50
2023-04-19T06:47:38.668Z,4.50
2023-04-19T06:50:05.789Z,4.70
2023-04-19T06:52:32.281Z,4.90
2023-04-19T06:54:58.773Z,4.80
2023-04-19T06:57:25.234Z,4.10
2023-04-19T06:59:51.963Z,4.70
2023-04-19T07:02:18.553Z,4.70
2023-04-19T07:04:45.352Z,4.70
2023-04-19T07:07:12.067Z,5.00
2023-04-19T07:09:38.539Z,4.70
2023-04-19T07:12:06.274Z,4.60
2023-04-19T07:14:32.747Z,4.60
2023-04-19T07:16:59.342Z,5.00
2023-04-19T07:19:25.905Z,4.70
2023-04-19T07:21:52.349Z,4.80
2023-04-19T07:24:18.852Z,4.60
2023-04-19T07:26:45.389Z,4.50
2023-04-19T07:29:14.053Z,4.60
2023-04-19T07:31:40.562Z,4.60
2023-04-19T07:34:07.131Z,3.90
2023-04-19T07:36:33.616Z,4.30
2023-04-19T07:39:00.083Z,4.10
2023-04-19T07:41:26.574Z,4.00
2023-04-19T07:43:53.078Z,4.10
2023-04-19T07:46:19.648Z,3.90
2023-04-19T07:48:46.171Z,4.00
2023-04-19T07:51:16.325Z,3.40
2023-04-19T07:53:46.216Z,3.90
2023-04-19T07:56:13.142Z,3.20
2023-04-19T07:58:40.140Z,3.40
2023-04-19T08:01:06.921Z,3.40
2023-04-19T08:03:34.958Z,3.10
2023-04-19T08:06:02.720Z,2.90
2023-04-19T08:08:29.180Z,3.20
2023-04-19T08:10:55.625Z,3.50
2023-04-19T08:13:22.183Z,3.40
2023-04-19T08:18:18.425Z,3.10
2023-04-19T08:20:46.638Z,2.70
2023-04-19T08:23:21.537Z,3.00
2023-04-19T08:25:52.549Z,2.70
2023-04-19T08:28:19.153Z,3.10
2023-04-19T08:30:45.747Z,4.70
2023-04-19T08:33:12.409Z,23.00
2023-04-19T08:35:39.297Z,3.60
2023-04-19T08:38:05.779Z,3.00
2023-04-19T08:40:32.852Z,2.80
2023-04-19T08:42:59.728Z,3.30
2023-04-19T08:45:28.765Z,2.90
2023-04-19T08:48:01.540Z,3.10
2023-04-19T08:55:28.543Z,2.50
2023-04-19T08:57:56.905Z,2.50
2023-04-19T09:00:23.520Z,2.80
2023-04-19T09:02:51.871Z,2.60
2023-04-19T09:05:19.530Z,2.60
2023-04-19T09:07:47.026Z,2.70
2023-04-19T09:10:17.266Z,2.30
2023-04-19T09:12:45.140Z,3.00
2023-04-19T09:15:11.623Z,2.80
2023-04-19T09:17:40.177Z,3.00
2023-04-19T09:20:07.124Z,3.00
2023-04-19T09:22:33.800Z,3.30
2023-04-19T09:27:35.144Z,3.10
2023-04-19T09:30:04.286Z,3.00
2023-04-19T09:32:46.616Z,3.50
2023-04-19T09:35:13.127Z,3.40
2023-04-19T09:40:26.894Z,3.10
2023-04-19T09:48:04.459Z,3.70
2023-04-19T09:50:32.075Z,4.10
2023-04-19T09:53:00.079Z,4.20
2023-04-19T09:55:29.262Z,3.90
2023-04-19T09:57:56.929Z,4.20
2023-04-19T10:00:23.632Z,4.60
2023-04-19T10:02:56.385Z,3.70
2023-04-19T10:05:24.753Z,3.40
2023-04-19T10:07:53.283Z,3.40
2023-04-19T10:10:27.649Z,3.30
2023-04-19T10:15:50.122Z,2.90
2023-04-19T10:18:18.233Z,3.20
2023-04-19T10:20:55.269Z,2.90
2023-04-19T10:23:22.883Z,2.70
2023-04-19T10:25:49.454Z,2.80
2023-04-19T10:28:16.536Z,3.00
2023-04-19T10:30:54.404Z,2.80
2023-04-19T10:33:28.346Z,2.60
2023-04-19T10:35:59.215Z,2.50
2023-04-19T10:38:49.786Z,2.70
2023-04-19T10:41:18.520Z,2.70
2023-04-19T10:44:09.810Z,2.70
2023-04-19T10:46:38.558Z,3.70
2023-04-19T10:49:06.174Z,3.70
2023-04-19T10:51:33.757Z,3.00
2023-04-19T10:54:01.955Z,3.00
2023-04-19T10:56:34.790Z,3.30
2023-04-19T10:59:01.262Z,3.60
2023-04-19T11:01:41.082Z,3.80
2023-04-19T11:04:09.540Z,3.90
2023-04-19T11:06:38.279Z,4.00
2023-04-19T11:09:04.805Z,4.90
2023-04-19T11:11:35.063Z,5.50
2023-04-19T11:14:03.422Z,5.60
2023-04-19T11:16:44.510Z,6.00
2023-04-19T11:19:19.087Z,5.40
2023-04-19T11:21:46.810Z,6.30
2023-04-19T11:24:13.876Z,4.90
2023-04-19T11:26:42.972Z,5.60
2023-04-19T11:29:10.149Z,5.80
2023-04-19T11:31:36.706Z,5.70
2023-04-19T11:34:04.178Z,6.10
2023-04-19T11:36:33.501Z,5.40
2023-04-19T11:38:59.954Z,5.20
2023-04-19T11:41:26.457Z,5.10
2023-04-19T11:43:53.179Z,5.10
2023-04-19T11:46:19.697Z,4.80
2023-04-19T11:48:53.472Z,5.40
2023-04-19T11:51:20.885Z,5.70
2023-04-19T11:53:47.442Z,4.70
2023-04-19T11:56:13.934Z,4.40
2023-04-19T11:58:45.279Z,5.40
2023-04-19T12:03:45.715Z,6.70
2023-04-19T12:06:17.921Z,5.10
2023-04-19T12:08:47.249Z,4.90
2023-04-19T12:11:15.170Z,6.70
2023-04-19T12:13:42.256Z,6.30
2023-04-19T12:16:08.880Z,5.00
2023-04-19T12:18:51.412Z,6.50
2023-04-19T12:21:25.390Z,7.40
2023-04-19T12:23:55.036Z,6.70
2023-04-19T12:26:21.528Z,7.40
2023-04-19T12:28:47.995Z,7.70
2023-04-19T12:31:14.529Z,8.00
2023-04-19T12:33:41.027Z,6.90
2023-04-19T12:36:07.838Z,7.40
2023-04-19T12:38:34.310Z,6.60
2023-04-19T12:41:01.198Z,6.90
2023-04-19T12:43:27.737Z,7.00
2023-04-19T12:45:54.317Z,6.90
2023-04-19T12:48:20.857Z,6.30
2023-04-19T12:50:47.356Z,7.30
2023-04-19T12:53:13.826Z,6.50
2023-04-19T12:55:40.277Z,6.90
2023-04-19T12:58:06.848Z,5.90
2023-04-19T13:00:33.329Z,6.80
2023-04-19T13:03:00.023Z,5.50
2023-04-19T13:05:26.831Z,6.40
2023-04-19T13:07:53.351Z,5.90
2023-04-19T13:10:19.899Z,6.10
2023-04-19T13:12:46.438Z,6.80
2023-04-19T13:15:12.939Z,6.00
2023-04-19T13:17:39.390Z,6.90
2023-04-19T13:20:06.778Z,7.10
2023-04-19T13:22:33.379Z,6.80
2023-04-19T13:24:59.866Z,6.40
2023-04-19T13:27:26.343Z,5.70
2023-04-19T13:29:55.213Z,5.50
2023-04-19T13:32:21.951Z,5.60
2023-04-19T13:34:48.633Z,6.10
2023-04-19T13:37:15.185Z,6.10
2023-04-19T13:39:42.960Z,5.80
2023-04-19T13:42:09.458Z,6.10
2023-04-19T13:44:35.954Z,5.60
2023-04-19T13:47:02.565Z,5.20
2023-04-19T13:49:29.122Z,5.30
2023-04-19T13:51:55.942Z,5.40
2023-04-19T13:54:22.464Z,5.90
2023-04-19T13:56:51.965Z,5.40
2023-04-19T13:59:18.922Z,5.30
2023-04-19T14:01:45.357Z,5.80
2023-04-19T14:04:12.011Z,5.40
2023-04-19T14:06:38.710Z,5.70
2023-04-19T14:09:05.207Z,5.50
2023-04-19T14:11:31.732Z,5.00
2023-04-19T14:13:58.220Z,5.50
2023-04-19T14:16:24.952Z,5.60
2023-04-19T14:18:51.538Z,6.10
2023-04-19T14:21:18.519Z,6.20
2023-04-19T14:23:45.037Z,17.40
2023-04-19T14:26:11.536Z,8.80
2023-04-19T14:28:37.995Z,7.90
2023-04-19T14:31:04.603Z,8.10
2023-04-19T14:33:31.172Z,8.00
2023-04-19T14:35:57.663Z,9.00
2023-04-19T14:38:24.149Z,8.30
2023-04-19T14:40:50.588Z,8.50
2023-04-19T14:43:17.167Z,8.60
2023-04-19T14:45:43.676Z,8.40
2023-04-19T14:48:10.304Z,8.10
2023-04-19T14:50:36.844Z,8.40
2023-04-19T14:53:03.390Z,8.20
2023-04-19T14:55:29.894Z,7.40
2023-04-19T14:57:56.385Z,8.40
2023-04-19T15:00:22.982Z,8.00
2023-04-19T15:02:49.516Z,8.10
2023-04-19T15:05:16.420Z,7.90
2023-04-19T15:07:43.113Z,8.40
2023-04-19T15:10:10.021Z,6.90
2023-04-19T15:12:36.556Z,7.80
2023-04-19T15:15:03.202Z,7.30
2023-04-19T15:17:29.705Z,7.60
2023-04-19T15:19:56.210Z,7.50
2023-04-19T15:22:22.731Z,7.70
2023-04-19T15:24:49.195Z,7.20
2023-04-19T15:27:15.735Z,7.00
2023-04-19T15:29:42.239Z,7.30
2023-04-19T15:32:08.825Z,7.00
2023-04-19T15:34:35.326Z,6.50
2023-04-19T15:37:01.828Z,6.00
2023-04-19T15:39:28.305Z,6.30
2023-04-19T15:41:54.809Z,6.50
2023-04-19T15:44:21.261Z,6.40
2023-04-19T15:46:47.764Z,6.80
2023-04-19T15:49:14.425Z,6.00
2023-04-19T15:51:41.156Z,5.70
2023-04-19T15:54:07.704Z,6.40
2023-04-19T15:56:34.178Z,6.00
2023-04-19T15:59:00.845Z,5.80
2023-04-19T16:01:27.434Z,5.10
2023-04-19T16:03:54.316Z,5.90
2023-04-19T16:06:22.135Z,5.70
2023-04-19T16:08:49.880Z,5.50
2023-04-19T16:11:16.417Z,5.30
2023-04-19T16:13:42.952Z,5.00
2023-04-19T16:16:09.429Z,4.40
2023-04-19T16:18:35.943Z,4.40
2023-04-19T16:21:03.469Z,4.10
2023-04-19T16:23:30.023Z,3.70
2023-04-19T16:25:56.904Z,3.20
2023-04-19T16:28:23.584Z,3.00
2023-04-19T16:30:50.057Z,3.10
2023-04-19T16:33:16.644Z,3.40
2023-04-19T16:35:43.175Z,3.50
2023-04-19T16:38:09.680Z,3.10
2023-04-19T16:40:36.198Z,3.60
2023-04-19T16:43:02.727Z,4.20
2023-04-19T16:45:29.276Z,3.90
2023-04-19T16:47:55.907Z,3.60
2023-04-19T16:50:22.458Z,3.90
2023-04-19T16:52:48.918Z,3.80
2023-04-19T16:55:15.512Z,4.30
2023-04-19T16:57:42.065Z,4.80
2023-04-19T17:00:09.294Z,4.60
2023-04-19T17:02:35.962Z,4.00
2023-04-19T17:05:02.588Z,4.50
2023-04-19T17:07:29.292Z,4.10
2023-04-19T17:09:55.928Z,4.30
2023-04-19T17:12:22.513Z,4.00
2023-04-19T17:14:49.039Z,4.30
2023-04-19T17:17:15.874Z,4.10
2023-04-19T17:19:42.299Z,4.70
2023-04-19T17:22:08.773Z,4.20
2023-04-19T17:24:35.264Z,4.40
2023-04-19T17:27:01.767Z,3.90
2023-04-19T17:29:28.390Z,4.20
2023-04-19T17:31:54.900Z,4.20
2023-04-19T17:34:21.439Z,3.70
2023-04-19T17:36:47.952Z,4.20
2023-04-19T17:39:14.622Z,4.20
2023-04-19T17:41:41.432Z,4.50
2023-04-19T17:44:07.963Z,4.50
2023-04-19T17:46:34.524Z,4.50
2023-04-19T17:49:01.025Z,4.60
2023-04-19T17:51:27.572Z,4.50
2023-04-19T17:53:54.119Z,4.30
2023-04-19T17:56:20.626Z,4.80
2023-04-19T17:58:47.073Z,4.60
2023-04-19T18:01:53.149Z,5.80
2023-04-19T18:04:20.120Z,4.90
2023-04-19T18:06:46.799Z,5.20
2023-04-19T18:09:13.422Z,5.40
2023-04-19T18:11:40.498Z,5.60
2023-04-19T18:14:06.982Z,5.60
2023-04-19T18:16:33.583Z,5.10
2023-04-19T18:19:00.100Z,6.80
2023-04-19T18:21:26.708Z,6.90
2023-04-19T18:23:53.347Z,6.20
2023-04-19T18:26:20.583Z,6.00
2023-04-19T18:28:47.490Z,5.60
2023-04-19T18:31:13.984Z,6.20
2023-04-19T18:33:40.491Z,6.60
2023-04-19T18:36:07.059Z,6.30
2023-04-19T18:38:33.556Z,6.40
2023-04-19T18:41:00.011Z,6.70
2023-04-19T18:43:27.992Z,6.30
2023-04-19T18:45:55.584Z,6.80
2023-04-19T18:48:23.879Z,7.50
2023-04-19T18:50:50.660Z,7.10
2023-04-19T18:53:17.128Z,6.30
2023-04-19T18:55:43.641Z,7.00
2023-04-19T18:58:10.128Z,7.20
2023-04-19T19:00:36.619Z,6.80
2023-04-19T19:03:04.022Z,7.40
2023-04-19T19:05:30.814Z,7.00
2023-04-19T19:07:57.849Z,7.50
2023-04-19T19:12:53.082Z,6.60
2023-04-19T19:15:19.602Z,6.50
2023-04-19T19:17:49.779Z,6.70
2023-04-19T19:20:20.014Z,6.50
2023-04-19T19:22:46.565Z,7.00
2023-04-19T19:25:13.137Z,7.10
2023-04-19T19:27:40.086Z,7.40
2023-04-19T19:30:07.417Z,6.90
2023-04-19T19:32:34.064Z,7.10
2023-04-19T19:35:02.978Z,6.90
2023-04-19T19:37:31.254Z,6.60
2023-04-19T19:40:02.809Z,6.90
2023-04-19T19:42:31.096Z,6.70
2023-04-19T19:44:57.547Z,6.30
2023-04-19T19:47:25.128Z,6.60
2023-04-19T19:50:34.998Z,7.40
2023-04-19T19:52:38.433Z,6.50
2023-04-19T19:55:05.714Z,7.60
2023-04-19T19:58:16.338Z,7.60
2023-04-19T20:00:37.563Z,8.10
2023-04-19T20:03:06.688Z,7.20
2023-04-19T20:05:33.765Z,7.80
2023-04-19T20:08:10.143Z,7.00
2023-04-19T20:10:38.253Z,7.40
2023-04-19T20:13:05.103Z,7.00
2023-04-19T20:15:32.128Z,8.50
2023-04-19T20:17:58.752Z,7.90
2023-04-19T20:20:25.265Z,7.90
2023-04-19T20:22:51.778Z,7.80
2023-04-19T20:25:18.263Z,7.90
2023-04-19T20:27:44.799Z,7.70
2023-04-19T20:30:11.780Z,7.60
2023-04-19T20:32:38.498Z,7.80
2023-04-19T20:35:05.446Z,7.30
2023-04-19T20:37:31.943Z,7.60
2023-04-19T20:39:58.407Z,7.80
2023-04-19T20:42:24.976Z,7.40
2023-04-19T20:44:51.470Z,7.50
2023-04-19T20:47:17.900Z,7.50
2023-04-19T20:49:44.359Z,6.90
2023-04-19T20:52:10.817Z,7.10
2023-04-19T20:54:37.365Z,7.50
2023-04-19T20:57:03.851Z,7.50
2023-04-19T20:59:31.022Z,7.70
2023-04-19T21:01:58.422Z,7.30
2023-04-19T21:04:25.103Z,7.90
2023-04-19T21:06:51.745Z,7.60
2023-04-19T21:09:18.491Z,8.00
2023-04-19T21:11:45.190Z,8.00
2023-04-19T21:14:11.706Z,8.20
2023-04-19T21:16:38.214Z,7.50
2023-04-19T21:19:04.721Z,8.40
2023-04-19T21:21:32.496Z,7.70
2023-04-19T21:23:59.180Z,7.30
2023-04-19T21:26:25.683Z,7.40
2023-04-19T21:28:52.142Z,7.80
2023-04-19T21:31:18.676Z,7.80
2023-04-19T21:33:45.141Z,7.90
2023-04-19T21:36:11.814Z,7.00
2023-04-19T21:38:38.395Z,7.40
2023-04-19T21:41:06.635Z,7.40
2023-04-19T21:43:33.161Z,7.20
2023-04-19T21:45:59.841Z,7.60
2023-04-19T21:48:26.304Z,7.90
2023-04-19T21:50:53.003Z,8.30
2023-04-19T21:53:19.450Z,7.90
2023-04-19T21:55:48.852Z,7.40
2023-04-19T21:58:15.345Z,7.70
2023-04-19T22:00:41.898Z,7.00
2023-04-19T22:03:08.909Z,7.50
2023-04-19T22:05:35.563Z,8.30
2023-04-19T22:08:02.704Z,7.20
2023-04-19T22:10:29.958Z,7.90
2023-04-19T22:12:58.878Z,7.80
2023-04-19T22:15:26.527Z,8.30
2023-04-19T22:17:53.054Z,7.80
2023-04-19T22:20:19.644Z,7.40
2023-04-19T22:22:46.104Z,8.40
2023-04-19T22:25:12.644Z,8.80
2023-04-19T22:27:39.120Z,8.10
2023-04-19T22:30:06.329Z,7.70
2023-04-19T22:32:32.926Z,8.00
2023-04-19T22:34:59.454Z,8.40
2023-04-19T22:37:25.910Z,8.60
2023-04-19T22:39:52.395Z,8.30
2023-04-19T22:42:18.854Z,8.30
2023-04-19T22:44:45.316Z,8.70
2023-04-19T22:47:11.809Z,9.10
2023-04-19T22:49:38.348Z,8.00
2023-04-19T22:52:04.834Z,8.80
2023-04-19T22:54:31.318Z,8.80
2023-04-19T22:56:57.781Z,9.20
2023-04-19T22:59:24.272Z,8.30
2023-04-19T23:01:50.950Z,8.80
2023-04-19T23:04:17.562Z,9.10
2023-04-19T23:06:44.245Z,8.90
2023-04-19T23:09:10.972Z,8.80
2023-04-19T23:11:37.423Z,7.80
2023-04-19T23:14:04.012Z,8.60
2023-04-19T23:16:30.463Z,9.00
2023-04-19T23:18:56.928Z,9.00
2023-04-19T23:21:23.392Z,9.60
2023-04-19T23:23:50.263Z,10.00
2023-04-19T23:26:16.745Z,9.70
2023-04-19T23:28:43.260Z,10.30
2023-04-19T23:31:09.786Z,10.30
2023-04-19T23:33:36.260Z,9.60
2023-04-19T23:36:02.927Z,9.60
2023-04-19T23:38:29.418Z,8.70
2023-04-19T23:40:55.882Z,9.40
2023-04-19T23:43:22.339Z,9.00
2023-04-19T23:45:48.836Z,9.90
2023-04-19T23:48:15.311Z,8.50
2023-04-19T23:50:41.765Z,9.40
2023-04-19T23:53:08.227Z,9.30
2023-04-19T23:55:34.683Z,9.90
2023-04-19T23:58:01.166Z,9.70
